sensor_id;sensor_type;location;lat;lon;timestamp;temperature;humidity
18291;DHT22;9271;48.590;8.866;2023-07-29T00:00:45;19.20;99.90
18291;DHT22;9271;48.590;8.866;2023-07-29T00:03:22;19.10;99.90
18291;DHT22;9271;48.590;8.866;2023-07-29T00:06:01;18.90;99.90
18291;DHT22;9271;48.590;8.866;2023-07-29T00:08:34;19.20;99.90
18291;DHT22;9271;48.590;8.866;2023-07-29T00:11:01;19.30;99.90
18291;DHT22;9271;48.590;8.866;2023-07-29T00:13:26;19.40;99.90
18291;DHT22;9271;48.590;8.866;2023-07-29T00:15:54;19.10;99.90
18291;DHT22;9271;48.590;8.866;2023-07-29T00:18:21;19.10;99.90
18291;DHT22;9271;48.590;8.866;2023-07-29T00:20:48;19.30;99.90
18291;DHT22;9271;48.590;8.866;2023-07-29T00:23:16;19.30;99.90
18291;DHT22;9271;48.590;8.866;2023-07-29T00:25:45;19.10;99.90
18291;DHT22;9271;48.590;8.866;2023-07-29T00:28:12;18.70;99.90
18291;DHT22;9271;48.590;8.866;2023-07-29T00:30:39;18.60;99.90
18291;DHT22;9271;48.590;8.866;2023-07-29T00:33:05;18.80;99.90
18291;DHT22;9271;48.590;8.866;2023-07-29T00:35:33;19.10;99.90
18291;DHT22;9271;48.590;8.866;2023-07-29T00:37:59;19.30;99.90
18291;DHT22;9271;48.590;8.866;2023-07-29T00:40:28;19.40;99.90
18291;DHT22;9271;48.590;8.866;2023-07-29T00:42:56;19.50;99.90
18291;DHT22;9271;48.590;8.866;2023-07-29T00:45:24;19.50;99.90
18291;DHT22;9271;48.590;8.866;2023-07-29T00:47:51;19.70;99.90
18291;DHT22;9271;48.590;8.866;2023-07-29T00:50:18;19.60;99.90
18291;DHT22;9271;48.590;8.866;2023-07-29T00:52:45;19.50;99.90
18291;DHT22;9271;48.590;8.866;2023-07-29T00:55:10;19.60;99.90
18291;DHT22;9271;48.590;8.866;2023-07-29T00:57:37;19.50;99.90
18291;DHT22;9271;48.590;8.866;2023-07-29T01:00:07;19.80;99.90
18291;DHT22;9271;48.590;8.866;2023-07-29T01:02:34;19.80;99.90
18291;DHT22;9271;48.590;8.866;2023-07-29T01:05:02;19.80;99.90
18291;DHT22;9271;48.590;8.866;2023-07-29T01:07:32;19.80;99.90
18291;DHT22;9271;48.590;8.866;2023-07-29T01:10:03;19.80;99.90
18291;DHT22;9271;48.590;8.866;2023-07-29T01:12:36;19.90;99.90
18291;DHT22;9271;48.590;8.866;2023-07-29T01:15:14;19.90;99.90
18291;DHT22;9271;48.590;8.866;2023-07-29T01:17:47;19.80;99.90
18291;DHT22;9271;48.590;8.866;2023-07-29T01:20:15;19.60;99.90
18291;DHT22;9271;48.590;8.866;2023-07-29T01:22:43;19.80;99.90
18291;DHT22;9271;48.590;8.866;2023-07-29T01:25:11;19.70;99.90
18291;DHT22;9271;48.590;8.866;2023-07-29T01:27:38;19.60;99.90
18291;DHT22;9271;48.590;8.866;2023-07-29T01:30:05;19.60;99.90
18291;DHT22;9271;48.590;8.866;2023-07-29T01:32:37;19.50;99.90
18291;DHT22;9271;48.590;8.866;2023-07-29T01:35:14;19.40;99.90
18291;DHT22;9271;48.590;8.866;2023-07-29T01:37:43;19.40;99.90
18291;DHT22;9271;48.590;8.866;2023-07-29T01:40:13;19.30;99.90
18291;DHT22;9271;48.590;8.866;2023-07-29T01:42:40;19.30;99.90
18291;DHT22;9271;48.590;8.866;2023-07-29T01:45:07;19.30;99.90
18291;DHT22;9271;48.590;8.866;2023-07-29T01:47:33;19.30;99.90
18291;DHT22;9271;48.590;8.866;2023-07-29T01:50:00;19.40;99.90
18291;DHT22;9271;48.590;8.866;2023-07-29T01:52:27;19.40;99.90
18291;DHT22;9271;48.590;8.866;2023-07-29T01:54:53;19.00;99.90
18291;DHT22;9271;48.590;8.866;2023-07-29T01:57:21;19.00;99.90
18291;DHT22;9271;48.590;8.866;2023-07-29T01:59:48;19.00;99.90
18291;DHT22;9271;48.590;8.866;2023-07-29T02:02:14;19.00;99.90
18291;DHT22;9271;48.590;8.866;2023-07-29T02:04:41;18.80;99.90
18291;DHT22;9271;48.590;8.866;2023-07-29T02:07:08;18.70;99.90
18291;DHT22;9271;48.590;8.866;2023-07-29T02:09:35;18.80;99.90
18291;DHT22;9271;48.590;8.866;2023-07-29T02:12:01;18.60;99.90
18291;DHT22;9271;48.590;8.866;2023-07-29T02:14:29;18.20;99.90
18291;DHT22;9271;48.590;8.866;2023-07-29T02:16:56;18.30;99.90
18291;DHT22;9271;48.590;8.866;2023-07-29T02:19:23;18.20;99.90
18291;DHT22;9271;48.590;8.866;2023-07-29T02:21:49;18.10;99.90
18291;DHT22;9271;48.590;8.866;2023-07-29T02:24:16;18.40;99.90
18291;DHT22;9271;48.590;8.866;2023-07-29T02:26:43;18.20;99.90
18291;DHT22;9271;48.590;8.866;2023-07-29T02:29:09;18.20;99.90
18291;DHT22;9271;48.590;8.866;2023-07-29T02:31:37;18.40;99.90
18291;DHT22;9271;48.590;8.866;2023-07-29T02:34:04;18.40;99.90
18291;DHT22;9271;48.590;8.866;2023-07-29T02:36:31;18.50;99.90
18291;DHT22;9271;48.590;8.866;2023-07-29T02:38:57;18.70;99.90
18291;DHT22;9271;48.590;8.866;2023-07-29T02:41:24;18.60;99.90
18291;DHT22;9271;48.590;8.866;2023-07-29T02:43:51;18.70;99.90
18291;DHT22;9271;48.590;8.866;2023-07-29T02:46:18;18.60;99.90
18291;DHT22;9271;48.590;8.866;2023-07-29T02:48:46;18.80;99.90
18291;DHT22;9271;48.590;8.866;2023-07-29T02:51:12;18.80;99.90
18291;DHT22;9271;48.590;8.866;2023-07-29T02:53:39;18.60;99.90
18291;DHT22;9271;48.590;8.866;2023-07-29T02:56:06;18.70;99.90
18291;DHT22;9271;48.590;8.866;2023-07-29T02:58:34;18.90;99.90
18291;DHT22;9271;48.590;8.866;2023-07-29T03:01:01;18.90;99.90
18291;DHT22;9271;48.590;8.866;2023-07-29T03:03:28;19.00;99.90
18291;DHT22;9271;48.590;8.866;2023-07-29T03:05:59;18.90;99.90
18291;DHT22;9271;48.590;8.866;2023-07-29T03:08:26;18.90;99.90
18291;DHT22;9271;48.590;8.866;2023-07-29T03:10:54;19.00;99.90
18291;DHT22;9271;48.590;8.866;2023-07-29T03:13:20;19.20;99.90
18291;DHT22;9271;48.590;8.866;2023-07-29T03:15:47;19.40;99.90
18291;DHT22;9271;48.590;8.866;2023-07-29T03:18:14;19.40;99.90
18291;DHT22;9271;48.590;8.866;2023-07-29T03:20:41;19.50;99.90
18291;DHT22;9271;48.590;8.866;2023-07-29T03:23:09;19.30;99.90
18291;DHT22;9271;48.590;8.866;2023-07-29T03:25:35;19.30;99.90
18291;DHT22;9271;48.590;8.866;2023-07-29T03:28:02;19.00;99.90
18291;DHT22;9271;48.590;8.866;2023-07-29T03:30:29;19.10;99.90
18291;DHT22;9271;48.590;8.866;2023-07-29T03:32:56;19.20;99.90
18291;DHT22;9271;48.590;8.866;2023-07-29T03:35:22;19.30;99.90
18291;DHT22;9271;48.590;8.866;2023-07-29T03:37:49;19.40;99.90
18291;DHT22;9271;48.590;8.866;2023-07-29T03:40:17;19.50;99.90
18291;DHT22;9271;48.590;8.866;2023-07-29T03:42:44;19.40;99.90
18291;DHT22;9271;48.590;8.866;2023-07-29T03:45:10;19.10;99.90
18291;DHT22;9271;48.590;8.866;2023-07-29T03:47:37;18.40;99.90
18291;DHT22;9271;48.590;8.866;2023-07-29T03:50:05;18.00;99.90
18291;DHT22;9271;48.590;8.866;2023-07-29T03:52:32;18.10;99.90
18291;DHT22;9271;48.590;8.866;2023-07-29T03:54:58;18.40;99.90
18291;DHT22;9271;48.590;8.866;2023-07-29T03:57:26;18.20;99.90
18291;DHT22;9271;48.590;8.866;2023-07-29T03:59:54;18.50;99.90
18291;DHT22;9271;48.590;8.866;2023-07-29T04:02:21;18.70;99.90
18291;DHT22;9271;48.590;8.866;2023-07-29T04:04:47;18.90;99.90
18291;DHT22;9271;48.590;8.866;2023-07-29T04:07:14;19.00;99.90
18291;DHT22;9271;48.590;8.866;2023-07-29T04:09:41;19.00;99.90
18291;DHT22;9271;48.590;8.866;2023-07-29T04:12:09;18.80;99.90
18291;DHT22;9271;48.590;8.866;2023-07-29T04:14:37;18.80;99.90
18291;DHT22;9271;48.590;8.866;2023-07-29T04:17:04;19.20;99.90
18291;DHT22;9271;48.590;8.866;2023-07-29T04:19:31;19.30;99.90
18291;DHT22;9271;48.590;8.866;2023-07-29T04:21:58;19.40;99.90
18291;DHT22;9271;48.590;8.866;2023-07-29T04:24:24;19.30;99.90
18291;DHT22;9271;48.590;8.866;2023-07-29T04:26:51;19.30;99.90
18291;DHT22;9271;48.590;8.866;2023-07-29T04:29:18;19.30;99.90
18291;DHT22;9271;48.590;8.866;2023-07-29T04:31:46;19.40;99.90
18291;DHT22;9271;48.590;8.866;2023-07-29T04:34:12;19.50;99.90
18291;DHT22;9271;48.590;8.866;2023-07-29T04:36:39;19.70;99.90
18291;DHT22;9271;48.590;8.866;2023-07-29T04:39:05;19.70;99.90
18291;DHT22;9271;48.590;8.866;2023-07-29T04:41:33;19.60;99.90
18291;DHT22;9271;48.590;8.866;2023-07-29T04:43:59;19.30;99.90
18291;DHT22;9271;48.590;8.866;2023-07-29T04:46:26;19.30;99.90
18291;DHT22;9271;48.590;8.866;2023-07-29T04:48:54;19.50;99.90
18291;DHT22;9271;48.590;8.866;2023-07-29T04:51:21;19.40;99.90
18291;DHT22;9271;48.590;8.866;2023-07-29T04:53:47;19.00;99.90
18291;DHT22;9271;48.590;8.866;2023-07-29T04:56:14;19.10;99.90
18291;DHT22;9271;48.590;8.866;2023-07-29T04:58:41;19.30;99.90
18291;DHT22;9271;48.590;8.866;2023-07-29T05:01:08;19.40;99.90
18291;DHT22;9271;48.590;8.866;2023-07-29T05:03:34;19.50;99.90
18291;DHT22;9271;48.590;8.866;2023-07-29T05:06:03;19.60;99.90
18291;DHT22;9271;48.590;8.866;2023-07-29T05:08:30;19.70;99.90
18291;DHT22;9271;48.590;8.866;2023-07-29T05:10:57;19.90;99.90
18291;DHT22;9271;48.590;8.866;2023-07-29T05:13:23;20.00;99.90
18291;DHT22;9271;48.590;8.866;2023-07-29T05:15:50;20.00;99.90
18291;DHT22;9271;48.590;8.866;2023-07-29T05:18:17;20.10;99.90
18291;DHT22;9271;48.590;8.866;2023-07-29T05:20:44;20.10;99.90
18291;DHT22;9271;48.590;8.866;2023-07-29T05:23:12;20.30;99.90
18291;DHT22;9271;48.590;8.866;2023-07-29T05:25:39;20.50;99.90
18291;DHT22;9271;48.590;8.866;2023-07-29T05:28:06;20.40;99.90
18291;DHT22;9271;48.590;8.866;2023-07-29T05:30:33;20.40;99.90
18291;DHT22;9271;48.590;8.866;2023-07-29T05:33:03;20.40;99.90
18291;DHT22;9271;48.590;8.866;2023-07-29T05:35:30;20.30;99.90
18291;DHT22;9271;48.590;8.866;2023-07-29T05:37:56;20.40;99.90
18291;DHT22;9271;48.590;8.866;2023-07-29T05:40:24;20.40;99.90
18291;DHT22;9271;48.590;8.866;2023-07-29T05:42:52;20.30;99.90
18291;DHT22;9271;48.590;8.866;2023-07-29T05:45:19;20.40;99.90
18291;DHT22;9271;48.590;8.866;2023-07-29T05:47:45;20.60;99.90
18291;DHT22;9271;48.590;8.866;2023-07-29T05:50:12;20.80;99.90
18291;DHT22;9271;48.590;8.866;2023-07-29T05:52:39;21.20;99.90
18291;DHT22;9271;48.590;8.866;2023-07-29T05:55:06;21.60;99.90
18291;DHT22;9271;48.590;8.866;2023-07-29T05:57:34;21.70;99.90
18291;DHT22;9271;48.590;8.866;2023-07-29T06:00:01;22.00;99.90
18291;DHT22;9271;48.590;8.866;2023-07-29T06:02:28;22.20;99.90
18291;DHT22;9271;48.590;8.866;2023-07-29T06:04:54;22.30;99.90
18291;DHT22;9271;48.590;8.866;2023-07-29T06:07:21;22.00;99.90
18291;DHT22;9271;48.590;8.866;2023-07-29T06:09:48;22.10;99.90
18291;DHT22;9271;48.590;8.866;2023-07-29T06:12:14;22.20;99.90
18291;DHT22;9271;48.590;8.866;2023-07-29T06:14:42;22.30;99.90
18291;DHT22;9271;48.590;8.866;2023-07-29T06:17:09;22.50;99.90
18291;DHT22;9271;48.590;8.866;2023-07-29T06:19:36;22.70;99.90
18291;DHT22;9271;48.590;8.866;2023-07-29T06:22:04;22.70;99.90
18291;DHT22;9271;48.590;8.866;2023-07-29T06:24:31;22.60;99.90
18291;DHT22;9271;48.590;8.866;2023-07-29T06:26:57;22.50;99.90
18291;DHT22;9271;48.590;8.866;2023-07-29T06:29:24;22.40;99.90
18291;DHT22;9271;48.590;8.866;2023-07-29T06:31:52;22.30;99.90
18291;DHT22;9271;48.590;8.866;2023-07-29T06:34:20;22.30;99.90
18291;DHT22;9271;48.590;8.866;2023-07-29T06:36:46;22.20;99.90
18291;DHT22;9271;48.590;8.866;2023-07-29T06:39:13;22.00;99.90
18291;DHT22;9271;48.590;8.866;2023-07-29T06:41:39;21.80;99.90
18291;DHT22;9271;48.590;8.866;2023-07-29T06:44:06;21.40;99.90
18291;DHT22;9271;48.590;8.866;2023-07-29T06:46:33;20.60;99.90
18291;DHT22;9271;48.590;8.866;2023-07-29T06:49:01;19.50;99.90
18291;DHT22;9271;48.590;8.866;2023-07-29T06:51:27;19.20;99.90
18291;DHT22;9271;48.590;8.866;2023-07-29T06:53:58;19.10;99.90
18291;DHT22;9271;48.590;8.866;2023-07-29T06:56:25;18.90;99.90
18291;DHT22;9271;48.590;8.866;2023-07-29T06:58:51;18.90;99.90
18291;DHT22;9271;48.590;8.866;2023-07-29T07:01:18;18.90;99.90
18291;DHT22;9271;48.590;8.866;2023-07-29T07:03:44;18.80;99.90
18291;DHT22;9271;48.590;8.866;2023-07-29T07:06:12;19.20;99.90
18291;DHT22;9271;48.590;8.866;2023-07-29T07:08:39;19.30;99.90
18291;DHT22;9271;48.590;8.866;2023-07-29T07:11:07;19.60;99.90
18291;DHT22;9271;48.590;8.866;2023-07-29T07:13:34;20.00;99.90
18291;DHT22;9271;48.590;8.866;2023-07-29T07:16:00;20.30;99.90
18291;DHT22;9271;48.590;8.866;2023-07-29T07:18:27;20.50;99.90
18291;DHT22;9271;48.590;8.866;2023-07-29T07:20:54;20.80;99.90
18291;DHT22;9271;48.590;8.866;2023-07-29T07:23:21;21.20;99.90
18291;DHT22;9271;48.590;8.866;2023-07-29T07:25:48;21.20;99.90
18291;DHT22;9271;48.590;8.866;2023-07-29T07:28:15;21.10;99.90
18291;DHT22;9271;48.590;8.866;2023-07-29T07:30:42;21.30;99.90
18291;DHT22;9271;48.590;8.866;2023-07-29T07:33:08;21.50;99.90
18291;DHT22;9271;48.590;8.866;2023-07-29T07:35:35;21.80;99.90
18291;DHT22;9271;48.590;8.866;2023-07-29T07:38:01;21.90;99.90
18291;DHT22;9271;48.590;8.866;2023-07-29T07:40:30;21.90;99.90
18291;DHT22;9271;48.590;8.866;2023-07-29T07:42:57;21.80;99.90
18291;DHT22;9271;48.590;8.866;2023-07-29T07:45:24;21.80;99.90
18291;DHT22;9271;48.590;8.866;2023-07-29T07:47:51;21.90;99.90
18291;DHT22;9271;48.590;8.866;2023-07-29T07:50:18;22.10;99.90
18291;DHT22;9271;48.590;8.866;2023-07-29T07:52:45;22.20;99.90
18291;DHT22;9271;48.590;8.866;2023-07-29T07:55:12;22.20;99.90
18291;DHT22;9271;48.590;8.866;2023-07-29T07:57:40;22.40;99.90
18291;DHT22;9271;48.590;8.866;2023-07-29T08:00:07;22.70;99.90
18291;DHT22;9271;48.590;8.866;2023-07-29T08:02:34;23.20;99.90
18291;DHT22;9271;48.590;8.866;2023-07-29T08:05:01;23.60;99.90
18291;DHT22;9271;48.590;8.866;2023-07-29T08:07:28;23.60;99.90
18291;DHT22;9271;48.590;8.866;2023-07-29T08:09:54;23.50;99.90
18291;DHT22;9271;48.590;8.866;2023-07-29T08:12:21;23.00;99.90
18291;DHT22;9271;48.590;8.866;2023-07-29T08:14:49;23.20;99.90
18291;DHT22;9271;48.590;8.866;2023-07-29T08:17:16;23.00;99.90
18291;DHT22;9271;48.590;8.866;2023-07-29T08:19:42;23.40;99.90
18291;DHT22;9271;48.590;8.866;2023-07-29T08:22:09;23.90;99.90
18291;DHT22;9271;48.590;8.866;2023-07-29T08:24:36;23.90;99.90
18291;DHT22;9271;48.590;8.866;2023-07-29T08:27:03;23.30;99.90
18291;DHT22;9271;48.590;8.866;2023-07-29T08:29:29;23.60;99.90
18291;DHT22;9271;48.590;8.866;2023-07-29T08:31:57;24.20;99.90
18291;DHT22;9271;48.590;8.866;2023-07-29T08:34:24;24.90;99.90
18291;DHT22;9271;48.590;8.866;2023-07-29T08:36:51;25.00;99.90
18291;DHT22;9271;48.590;8.866;2023-07-29T08:39:17;23.90;99.90
18291;DHT22;9271;48.590;8.866;2023-07-29T08:41:49;24.10;99.90
18291;DHT22;9271;48.590;8.866;2023-07-29T08:44:21;24.90;99.90
18291;DHT22;9271;48.590;8.866;2023-07-29T08:46:48;26.10;99.90
18291;DHT22;9271;48.590;8.866;2023-07-29T08:49:27;26.50;99.90
18291;DHT22;9271;48.590;8.866;2023-07-29T08:51:54;26.20;99.90
18291;DHT22;9271;48.590;8.866;2023-07-29T08:54:22;26.40;99.90
18291;DHT22;9271;48.590;8.866;2023-07-29T08:56:49;26.10;99.90
18291;DHT22;9271;48.590;8.866;2023-07-29T08:59:16;25.60;99.90
18291;DHT22;9271;48.590;8.866;2023-07-29T09:01:43;26.20;99.90
18291;DHT22;9271;48.590;8.866;2023-07-29T09:04:10;26.60;99.90
18291;DHT22;9271;48.590;8.866;2023-07-29T09:06:39;27.70;99.90
18291;DHT22;9271;48.590;8.866;2023-07-29T09:09:07;27.60;99.90
18291;DHT22;9271;48.590;8.866;2023-07-29T09:11:34;30.10;99.90
18291;DHT22;9271;48.590;8.866;2023-07-29T09:14:01;31.10;95.90
18291;DHT22;9271;48.590;8.866;2023-07-29T09:16:28;32.00;94.40
18291;DHT22;9271;48.590;8.866;2023-07-29T09:18:55;32.70;93.60
18291;DHT22;9271;48.590;8.866;2023-07-29T09:21:26;32.80;91.40
18291;DHT22;9271;48.590;8.866;2023-07-29T09:23:55;31.60;91.20
18291;DHT22;9271;48.590;8.866;2023-07-29T09:26:22;31.00;95.00
18291;DHT22;9271;48.590;8.866;2023-07-29T09:28:52;30.00;93.30
18291;DHT22;9271;48.590;8.866;2023-07-29T09:31:20;28.50;95.40
18291;DHT22;9271;48.590;8.866;2023-07-29T09:33:47;26.90;98.50
18291;DHT22;9271;48.590;8.866;2023-07-29T09:36:14;27.10;98.60
18291;DHT22;9271;48.590;8.866;2023-07-29T09:38:40;27.10;99.90
18291;DHT22;9271;48.590;8.866;2023-07-29T09:41:11;26.30;99.40
18291;DHT22;9271;48.590;8.866;2023-07-29T09:43:39;26.40;99.70
18291;DHT22;9271;48.590;8.866;2023-07-29T09:46:06;26.60;99.00
18291;DHT22;9271;48.590;8.866;2023-07-29T09:48:33;27.50;97.20
18291;DHT22;9271;48.590;8.866;2023-07-29T09:51:09;27.20;97.60
18291;DHT22;9271;48.590;8.866;2023-07-29T09:53:39;27.80;97.30
18291;DHT22;9271;48.590;8.866;2023-07-29T09:56:08;29.10;94.80
18291;DHT22;9271;48.590;8.866;2023-07-29T09:58:34;29.80;94.50
18291;DHT22;9271;48.590;8.866;2023-07-29T10:01:03;30.80;90.60
18291;DHT22;9271;48.590;8.866;2023-07-29T10:03:31;29.70;90.50
18291;DHT22;9271;48.590;8.866;2023-07-29T10:06:00;28.20;92.60
18291;DHT22;9271;48.590;8.866;2023-07-29T10:08:27;26.30;94.70
18291;DHT22;9271;48.590;8.866;2023-07-29T10:10:55;25.80;97.20
18291;DHT22;9271;48.590;8.866;2023-07-29T10:13:24;26.30;95.80
18291;DHT22;9271;48.590;8.866;2023-07-29T10:15:53;27.80;93.10
18291;DHT22;9271;48.590;8.866;2023-07-29T10:18:21;29.60;91.30
18291;DHT22;9271;48.590;8.866;2023-07-29T10:20:50;31.10;87.70
18291;DHT22;9271;48.590;8.866;2023-07-29T10:23:18;32.30;85.90
18291;DHT22;9271;48.590;8.866;2023-07-29T10:25:47;31.70;86.30
18291;DHT22;9271;48.590;8.866;2023-07-29T10:28:17;29.80;90.10
18291;DHT22;9271;48.590;8.866;2023-07-29T10:30:48;29.50;91.40
18291;DHT22;9271;48.590;8.866;2023-07-29T10:33:14;27.20;92.90
18291;DHT22;9271;48.590;8.866;2023-07-29T10:35:41;26.30;94.60
18291;DHT22;9271;48.590;8.866;2023-07-29T10:38:08;26.70;94.10
18291;DHT22;9271;48.590;8.866;2023-07-29T10:40:46;27.90;93.80
18291;DHT22;9271;48.590;8.866;2023-07-29T10:43:19;29.20;90.80
18291;DHT22;9271;48.590;8.866;2023-07-29T10:45:47;29.50;90.70
18291;DHT22;9271;48.590;8.866;2023-07-29T10:48:41;29.90;90.30
18291;DHT22;9271;48.590;8.866;2023-07-29T10:51:28;31.00;88.90
18291;DHT22;9271;48.590;8.866;2023-07-29T10:54:00;34.10;84.10
18291;DHT22;9271;48.590;8.866;2023-07-29T10:56:29;35.60;77.10
18291;DHT22;9271;48.590;8.866;2023-07-29T10:58:56;35.60;73.60
18291;DHT22;9271;48.590;8.866;2023-07-29T11:01:31;35.70;71.60
18291;DHT22;9271;48.590;8.866;2023-07-29T11:04:25;33.10;71.50
18291;DHT22;9271;48.590;8.866;2023-07-29T11:07:19;28.90;80.50
18291;DHT22;9271;48.590;8.866;2023-07-29T11:09:53;27.30;88.30
18291;DHT22;9271;48.590;8.866;2023-07-29T11:12:35;27.10;91.00
18291;DHT22;9271;48.590;8.866;2023-07-29T11:15:04;29.00;90.10
18291;DHT22;9271;48.590;8.866;2023-07-29T11:17:33;30.10;85.70
18291;DHT22;9271;48.590;8.866;2023-07-29T11:20:00;28.80;87.00
18291;DHT22;9271;48.590;8.866;2023-07-29T11:22:28;29.00;87.90
18291;DHT22;9271;48.590;8.866;2023-07-29T11:24:55;29.80;86.00
18291;DHT22;9271;48.590;8.866;2023-07-29T11:27:21;29.70;86.60
18291;DHT22;9271;48.590;8.866;2023-07-29T11:29:48;29.80;85.10
18291;DHT22;9271;48.590;8.866;2023-07-29T11:32:15;28.70;87.00
18291;DHT22;9271;48.590;8.866;2023-07-29T11:34:43;28.80;87.20
18291;DHT22;9271;48.590;8.866;2023-07-29T11:37:11;30.80;82.90
18291;DHT22;9271;48.590;8.866;2023-07-29T11:39:39;31.10;81.20
18291;DHT22;9271;48.590;8.866;2023-07-29T11:42:06;31.70;81.50
18291;DHT22;9271;48.590;8.866;2023-07-29T11:44:33;33.00;77.10
18291;DHT22;9271;48.590;8.866;2023-07-29T11:46:59;34.30;76.20
18291;DHT22;9271;48.590;8.866;2023-07-29T11:49:26;34.30;73.10
18291;DHT22;9271;48.590;8.866;2023-07-29T11:51:54;33.60;67.10
18291;DHT22;9271;48.590;8.866;2023-07-29T11:54:21;31.00;78.30
18291;DHT22;9271;48.590;8.866;2023-07-29T11:56:48;30.50;79.20
18291;DHT22;9271;48.590;8.866;2023-07-29T11:59:15;31.50;75.00
18291;DHT22;9271;48.590;8.866;2023-07-29T12:01:41;30.40;76.00
18291;DHT22;9271;48.590;8.866;2023-07-29T12:04:09;30.40;77.80
18291;DHT22;9271;48.590;8.866;2023-07-29T12:06:36;31.30;78.50
18291;DHT22;9271;48.590;8.866;2023-07-29T12:09:05;31.60;75.00
18291;DHT22;9271;48.590;8.866;2023-07-29T12:11:33;31.50;71.50
18291;DHT22;9271;48.590;8.866;2023-07-29T12:14:00;32.20;70.80
18291;DHT22;9271;48.590;8.866;2023-07-29T12:16:26;33.00;70.50
18291;DHT22;9271;48.590;8.866;2023-07-29T12:19:00;34.70;68.30
18291;DHT22;9271;48.590;8.866;2023-07-29T12:21:27;35.30;64.20
18291;DHT22;9271;48.590;8.866;2023-07-29T12:23:55;34.90;62.30
18291;DHT22;9271;48.590;8.866;2023-07-29T12:26:28;35.90;58.70
18291;DHT22;9271;48.590;8.866;2023-07-29T12:28:54;34.50;58.10
18291;DHT22;9271;48.590;8.866;2023-07-29T12:31:22;32.90;62.30
18291;DHT22;9271;48.590;8.866;2023-07-29T12:33:56;32.20;64.10
18291;DHT22;9271;48.590;8.866;2023-07-29T12:36:27;31.40;65.10
18291;DHT22;9271;48.590;8.866;2023-07-29T12:38:54;31.80;65.50
18291;DHT22;9271;48.590;8.866;2023-07-29T12:41:25;31.20;64.40
18291;DHT22;9271;48.590;8.866;2023-07-29T12:43:53;30.50;65.70
18291;DHT22;9271;48.590;8.866;2023-07-29T12:46:20;30.20;69.90
18291;DHT22;9271;48.590;8.866;2023-07-29T12:48:46;29.80;70.50
18291;DHT22;9271;48.590;8.866;2023-07-29T12:51:13;30.40;70.20
18291;DHT22;9271;48.590;8.866;2023-07-29T12:53:39;30.70;68.30
18291;DHT22;9271;48.590;8.866;2023-07-29T12:56:06;29.70;70.70
18291;DHT22;9271;48.590;8.866;2023-07-29T12:58:33;28.70;73.30
18291;DHT22;9271;48.590;8.866;2023-07-29T13:01:01;28.40;72.20
18291;DHT22;9271;48.590;8.866;2023-07-29T13:03:27;27.90;74.50
18291;DHT22;9271;48.590;8.866;2023-07-29T13:05:54;27.70;75.60
18291;DHT22;9271;48.590;8.866;2023-07-29T13:08:21;27.50;73.80
18291;DHT22;9271;48.590;8.866;2023-07-29T13:10:48;27.70;73.80
18291;DHT22;9271;48.590;8.866;2023-07-29T13:13:15;28.10;74.50
18291;DHT22;9271;48.590;8.866;2023-07-29T13:15:41;27.90;75.10
18291;DHT22;9271;48.590;8.866;2023-07-29T13:18:09;28.20;74.00
18291;DHT22;9271;48.590;8.866;2023-07-29T13:20:36;27.60;76.20
18291;DHT22;9271;48.590;8.866;2023-07-29T13:23:03;28.60;74.40
18291;DHT22;9271;48.590;8.866;2023-07-29T13:25:29;29.00;75.60
18291;DHT22;9271;48.590;8.866;2023-07-29T13:27:56;29.30;73.40
18291;DHT22;9271;48.590;8.866;2023-07-29T13:30:23;29.40;70.00
18291;DHT22;9271;48.590;8.866;2023-07-29T13:32:49;29.50;69.20
18291;DHT22;9271;48.590;8.866;2023-07-29T13:35:18;29.20;70.50
18291;DHT22;9271;48.590;8.866;2023-07-29T13:37:44;28.60;71.50
18291;DHT22;9271;48.590;8.866;2023-07-29T13:40:11;28.00;72.50
18291;DHT22;9271;48.590;8.866;2023-07-29T13:42:38;27.80;75.20
18291;DHT22;9271;48.590;8.866;2023-07-29T13:45:05;27.60;74.70
18291;DHT22;9271;48.590;8.866;2023-07-29T13:47:32;27.70;74.50
18291;DHT22;9271;48.590;8.866;2023-07-29T13:49:59;27.40;75.20
18291;DHT22;9271;48.590;8.866;2023-07-29T13:52:27;27.30;75.70
18291;DHT22;9271;48.590;8.866;2023-07-29T13:54:54;27.20;76.50
18291;DHT22;9271;48.590;8.866;2023-07-29T13:57:21;27.10;76.60
18291;DHT22;9271;48.590;8.866;2023-07-29T13:59:47;26.80;75.60
18291;DHT22;9271;48.590;8.866;2023-07-29T14:02:14;26.60;76.20
18291;DHT22;9271;48.590;8.866;2023-07-29T14:04:41;26.90;77.80
18291;DHT22;9271;48.590;8.866;2023-07-29T14:07:07;27.30;76.80
18291;DHT22;9271;48.590;8.866;2023-07-29T14:09:35;27.70;76.30
18291;DHT22;9271;48.590;8.866;2023-07-29T14:12:04;27.30;76.00
18291;DHT22;9271;48.590;8.866;2023-07-29T14:14:31;27.00;76.40
18291;DHT22;9271;48.590;8.866;2023-07-29T14:16:57;26.90;77.40
18291;DHT22;9271;48.590;8.866;2023-07-29T14:19:24;27.10;76.20
18291;DHT22;9271;48.590;8.866;2023-07-29T14:21:51;27.30;76.30
18291;DHT22;9271;48.590;8.866;2023-07-29T14:24:17;27.90;74.40
18291;DHT22;9271;48.590;8.866;2023-07-29T14:26:46;27.60;75.00
18291;DHT22;9271;48.590;8.866;2023-07-29T14:29:13;27.20;77.30
18291;DHT22;9271;48.590;8.866;2023-07-29T14:31:39;27.20;77.30
18291;DHT22;9271;48.590;8.866;2023-07-29T14:34:06;27.80;76.20
18291;DHT22;9271;48.590;8.866;2023-07-29T14:36:33;27.90;75.00
18291;DHT22;9271;48.590;8.866;2023-07-29T14:38:59;27.60;76.90
18291;DHT22;9271;48.590;8.866;2023-07-29T14:41:26;27.40;76.60
18291;DHT22;9271;48.590;8.866;2023-07-29T14:43:54;27.30;77.80
18291;DHT22;9271;48.590;8.866;2023-07-29T14:46:21;26.90;80.30
18291;DHT22;9271;48.590;8.866;2023-07-29T14:48:47;27.30;78.80
18291;DHT22;9271;48.590;8.866;2023-07-29T14:51:14;27.60;77.60
18291;DHT22;9271;48.590;8.866;2023-07-29T14:53:41;27.40;78.20
18291;DHT22;9271;48.590;8.866;2023-07-29T14:56:08;26.90;79.40
18291;DHT22;9271;48.590;8.866;2023-07-29T14:58:35;26.60;79.90
18291;DHT22;9271;48.590;8.866;2023-07-29T15:01:03;26.30;81.60
18291;DHT22;9271;48.590;8.866;2023-07-29T15:03:29;26.40;82.10
18291;DHT22;9271;48.590;8.866;2023-07-29T15:05:56;26.50;81.10
18291;DHT22;9271;48.590;8.866;2023-07-29T15:08:24;26.90;80.40
18291;DHT22;9271;48.590;8.866;2023-07-29T15:10:51;27.60;80.20
18291;DHT22;9271;48.590;8.866;2023-07-29T15:13:19;27.00;79.90
18291;DHT22;9271;48.590;8.866;2023-07-29T15:15:45;26.50;81.80
18291;DHT22;9271;48.590;8.866;2023-07-29T15:18:16;26.60;81.60
18291;DHT22;9271;48.590;8.866;2023-07-29T15:20:43;26.60;83.00
18291;DHT22;9271;48.590;8.866;2023-07-29T15:23:10;26.80;82.50
18291;DHT22;9271;48.590;8.866;2023-07-29T15:25:37;26.80;82.30
18291;DHT22;9271;48.590;8.866;2023-07-29T15:28:04;27.00;80.70
18291;DHT22;9271;48.590;8.866;2023-07-29T15:30:31;27.00;82.00
18291;DHT22;9271;48.590;8.866;2023-07-29T15:32:57;27.00;81.20
18291;DHT22;9271;48.590;8.866;2023-07-29T15:35:25;27.20;81.10
18291;DHT22;9271;48.590;8.866;2023-07-29T15:37:52;27.20;79.80
18291;DHT22;9271;48.590;8.866;2023-07-29T15:40:19;27.00;79.70
18291;DHT22;9271;48.590;8.866;2023-07-29T15:42:45;27.50;81.20
18291;DHT22;9271;48.590;8.866;2023-07-29T15:45:12;28.00;77.90
18291;DHT22;9271;48.590;8.866;2023-07-29T15:47:39;28.20;79.30